Time;durP1;ratioP1;P1;durP2;ratioP2;P2;SDS_P1;SDS_P2;PMS_P1;PMS_P2;Temp;Humidity;BMP_temperature;BMP_pressure;BME280_temperature;BME280_humidity;BME280_pressure;Samples;Min_cycle;Max_cycle;Signal;HPM_P1;HPM_P2
2022/05/23 00:01:38;;;;;;;2.70;1.70;;;;;;;11.91;81.23;97946.36;1731781;81;28044;-84
2022/05/23 00:04:08;;;;;;;4.95;1.98;;;;;;;11.92;81.57;97947.20;1729201;81;28097;-85
2022/05/23 00:06:42;;;;;;;5.08;2.45;;;;;;;11.87;81.83;97951.99;1734402;81;28194;-85
2022/05/23 00:09:10;;;;;;;6.08;3.05;;;;;;;11.76;82.06;97955.50;1726125;81;28106;-84
2022/05/23 00:11:39;;;;;;;4.78;2.40;;;;;;;11.66;82.32;97959.33;1726851;81;28006;-85
2022/05/23 00:14:05;;;;;;;2.55;1.85;;;;;;;11.66;82.53;97958.50;1725671;81;28133;-85
2022/05/23 00:16:37;;;;;;;4.03;2.87;;;;;;;11.67;82.80;97950.98;1732988;81;28066;-85
2022/05/23 00:19:04;;;;;;;2.90;2.10;;;;;;;11.62;82.98;97948.72;1729303;81;28053;-85
2022/05/23 00:21:33;;;;;;;4.20;2.52;;;;;;;11.60;83.19;97951.13;1726621;81;28113;-88
2022/05/23 00:23:59;;;;;;;3.45;2.20;;;;;;;11.57;83.36;97953.98;1730971;81;28104;-89
2022/05/23 00:26:29;;;;;;;3.62;2.10;;;;;;;11.60;83.69;97957.69;1731207;81;28119;-88
2022/05/23 00:29:03;;;;;;;4.60;2.08;;;;;;;11.58;83.83;97959.11;1723882;81;28008;-84
2022/05/23 00:37:31;;;;;;;2.40;2.20;;;;;;;11.55;84.49;97955.92;1726056;81;28066;-85
2022/05/23 00:40:00;;;;;;;3.70;2.50;;;;;;;11.51;84.62;97959.75;1725924;81;28204;-85
2022/05/23 00:45:16;;;;;;;3.42;2.40;;;;;;;11.40;84.90;97967.14;1732758;81;28145;-83
2022/05/23 00:47:43;;;;;;;4.40;2.10;;;;;;;11.42;85.20;97960.47;1727495;81;28111;-86
2022/05/23 00:50:12;;;;;;;4.62;2.45;;;;;;;11.48;85.48;97970.46;1729563;81;28125;-88
2022/05/23 00:52:45;;;;;;;4.55;2.45;;;;;;;11.54;85.79;97963.42;1732226;81;28104;-84
2022/05/23 00:55:22;;;;;;;5.25;2.47;;;;;;;11.52;85.91;97960.08;1697021;81;28252;-84
2022/05/23 00:57:53;;;;;;;4.22;2.40;;;;;;;11.48;86.02;97956.05;1727309;81;28103;-84
2022/05/23 01:00:20;;;;;;;4.43;2.53;;;;;;;11.38;86.20;97945.97;1733113;81;45917;-84
2022/05/23 01:02:52;;;;;;;2.60;2.00;;;;;;;11.39;86.34;97959.42;1724717;81;27991;-85
2022/05/23 01:05:19;;;;;;;4.30;2.37;;;;;;;11.30;86.42;97961.81;1730471;81;28127;-88
2022/05/23 01:07:45;;;;;;;5.30;2.67;;;;;;;11.28;86.52;97963.74;1729007;81;28155;-88
2022/05/23 01:10:12;;;;;;;6.35;2.10;;;;;;;11.26;86.60;97960.88;1730508;81;28072;-85
2022/05/23 01:12:39;;;;;;;6.67;2.10;;;;;;;11.25;86.71;97963.97;1729408;81;28173;-86
2022/05/23 01:15:18;;;;;;;3.37;2.50;;;;;;;11.22;86.80;97960.30;1729392;81;28072;-85
2022/05/23 01:17:44;;;;;;;3.85;2.33;;;;;;;11.19;86.90;97956.60;1728373;81;27999;-85
2022/05/23 01:20:11;;;;;;;3.20;2.08;;;;;;;11.12;87.01;97962.00;1732624;81;28050;-85
2022/05/23 01:23:06;;;;;;;5.83;2.00;;;;;;;11.13;87.21;97952.32;1692827;83;28003;-84
2022/05/23 01:25:34;;;;;;;5.65;2.35;;;;;;;11.11;87.36;97951.16;1725481;82;28088;-86
2022/05/23 01:28:01;;;;;;;2.37;1.98;;;;;;;11.08;87.51;97950.08;1725299;81;28150;-85
2022/05/23 01:30:28;;;;;;;5.00;2.52;;;;;;;11.04;87.64;97952.59;1726988;81;28223;-87
2022/05/23 01:32:59;;;;;;;3.83;2.47;;;;;;;11.01;87.72;97958.09;1726554;81;28041;-87
2022/05/23 01:35:25;;;;;;;3.65;2.05;;;;;;;11.00;87.90;97953.80;1732877;81;28105;-85
2022/05/23 01:37:51;;;;;;;4.05;2.05;;;;;;;11.00;88.07;97950.34;1730801;81;28103;-88
2022/05/23 01:40:24;;;;;;;3.05;2.02;;;;;;;11.02;88.24;97953.69;1737275;81;28070;-84
2022/05/23 01:42:51;;;;;;;4.25;2.20;;;;;;;10.95;88.26;97953.80;1727770;81;28074;-84
2022/05/23 01:45:29;;;;;;;4.28;2.27;;;;;;;10.75;88.23;97944.41;1731489;81;28073;-83
2022/05/23 01:48:03;;;;;;;3.95;2.35;;;;;;;10.54;88.20;97949.17;1726611;81;28094;-84
2022/05/23 01:50:35;;;;;;;2.95;1.92;;;;;;;10.30;88.36;97940.97;1733126;81;28146;-84
2022/05/23 01:53:04;;;;;;;3.50;2.00;;;;;;;10.13;88.65;97936.63;1730378;81;28121;-88
2022/05/23 01:55:31;;;;;;;3.47;2.08;;;;;;;10.21;89.13;97930.36;1731195;81;42385;-88
2022/05/23 01:57:59;;;;;;;3.58;1.98;;;;;;;10.40;89.68;97930.63;1736606;81;28076;-85
2022/05/23 02:03:11;;;;;;;4.55;2.17;;;;;;;10.60;90.42;97931.22;1726029;81;28181;-87
2022/05/23 02:05:38;;;;;;;4.65;2.40;;;;;;;10.68;90.76;97930.63;1729255;81;28084;-88
2022/05/23 02:08:06;;;;;;;3.83;2.25;;;;;;;10.69;90.91;97927.87;1732489;81;28159;-84
2022/05/23 02:10:34;;;;;;;5.22;2.42;;;;;;;10.65;91.05;97930.38;1727318;81;43014;-83
2022/05/23 02:13:03;;;;;;;3.10;2.08;;;;;;;10.55;91.11;97925.52;1728145;81;28088;-88
2022/05/23 02:15:37;;;;;;;3.42;2.00;;;;;;;10.49;91.24;97933.36;1730580;81;28070;-83
2022/05/23 02:18:14;;;;;;;3.60;2.40;;;;;;;10.36;91.24;97930.05;1728311;81;28113;-84
2022/05/23 02:20:41;;;;;;;5.45;2.67;;;;;;;10.25;91.28;97931.34;1731761;81;28154;-84
2022/05/23 02:26:15;;;;;;;4.67;1.82;;;;;;;10.06;91.59;97926.63;1729716;82;28110;-85
2022/05/23 02:28:41;;;;;;;3.35;1.98;;;;;;;10.13;91.97;97924.86;1727708;82;28105;-85
2022/05/23 02:31:08;;;;;;;4.45;2.50;;;;;;;9.84;92.02;97926.58;1728148;81;28116;-85
2022/05/23 02:33:35;;;;;;;4.70;2.62;;;;;;;9.77;92.23;97921.45;1726458;82;28087;-85
2022/05/23 02:36:01;;;;;;;4.22;2.35;;;;;;;9.80;92.59;97920.40;1727588;82;28021;-85
2022/05/23 02:38:30;;;;;;;3.33;2.40;;;;;;;9.83;92.80;97920.16;1723562;82;28254;-85
2022/05/23 02:40:59;;;;;;;2.80;2.40;;;;;;;9.81;93.01;97922.91;1720791;82;42344;-85
2022/05/23 02:43:27;;;;;;;4.60;2.72;;;;;;;9.63;93.06;97929.02;1726252;82;28086;-82
2022/05/23 02:46:23;;;;;;;3.83;2.12;;;;;;;9.69;93.49;97927.73;1724200;82;42335;-83
2022/05/23 02:48:49;;;;;;;7.28;3.00;;;;;;;9.77;93.88;97929.28;1723542;82;43037;-87
2022/05/23 02:51:15;;;;;;;6.90;2.90;;;;;;;9.84;94.22;97933.12;1724770;82;43049;-87
2022/05/23 02:53:42;;;;;;;6.05;2.90;;;;;;;9.88;94.66;97935.02;1721059;82;43103;-83
2022/05/23 02:56:13;;;;;;;4.95;3.02;;;;;;;9.95;95.10;97931.84;1726952;82;43009;-83
2022/05/23 02:58:40;;;;;;;5.65;2.65;;;;;;;9.96;95.38;97932.67;1724237;82;28091;-84
2022/05/23 03:01:07;;;;;;;4.87;2.62;;;;;;;9.96;95.68;97930.06;1723657;82;43099;-87
2022/05/23 03:03:33;;;;;;;3.65;2.95;;;;;;;9.92;95.84;97939.92;1730123;81;43164;-84
2022/05/23 03:06:00;;;;;;;5.53;2.92;;;;;;;9.97;96.14;97931.73;1724399;81;43051;-87
2022/05/23 03:08:28;;;;;;;4.40;2.77;;;;;;;9.93;96.33;97943.34;1721931;82;43415;-87
2022/05/23 03:10:58;;;;;;;5.53;2.58;;;;;;;9.88;96.44;97935.02;1725889;82;43044;-84
2022/05/23 03:13:24;;;;;;;3.70;1.95;;;;;;;9.74;96.53;97935.22;1721433;82;28078;-84
2022/05/23 03:15:51;;;;;;;3.58;2.20;;;;;;;9.49;96.48;97939.63;1726048;81;28103;-84
2022/05/23 03:18:18;;;;;;;3.25;2.00;;;;;;;9.42;96.63;97934.98;1729974;81;42328;-87
2022/05/23 03:20:44;;;;;;;3.98;2.47;;;;;;;9.55;97.06;97938.35;1727798;82;42766;-84
2022/05/23 03:29:06;;;;;;;6.03;2.52;;;;;;;9.52;97.79;97931.59;1722778;82;43025;-84
2022/05/23 03:31:33;;;;;;;7.28;2.20;;;;;;;9.54;98.17;97928.41;1717515;82;28107;-83
2022/05/23 03:34:05;;;;;;;3.65;1.90;;;;;;;9.57;98.53;97929.94;1727481;82;28157;-82
2022/05/23 03:36:33;;;;;;;5.12;2.80;;;;;;;9.73;99.04;97932.25;1725975;82;28100;-84
2022/05/23 03:39:02;;;;;;;6.75;2.30;;;;;;;10.06;99.68;97938.40;1722923;82;28091;-84
2022/05/23 03:41:28;;;;;;;5.33;2.52;;;;;;;10.29;100.00;97922.77;1723955;82;28092;-84
2022/05/23 03:43:55;;;;;;;4.85;2.80;;;;;;;10.62;100.00;97945.02;1721911;81;28101;-84
2022/05/23 03:46:21;;;;;;;5.45;2.40;;;;;;;10.88;100.00;97939.88;1755553;80;28123;-87
2022/05/23 03:48:48;;;;;;;4.42;2.67;;;;;;;11.03;100.00;97946.16;1721003;82;27999;-84
2022/05/23 03:51:14;;;;;;;4.72;2.62;;;;;;;10.94;100.00;97950.34;1733572;81;28103;-83
2022/05/23 03:53:40;;;;;;;5.72;3.25;;;;;;;10.96;100.00;97959.40;1726824;82;28084;-84
2022/05/23 03:56:07;;;;;;;5.42;2.62;;;;;;;11.20;100.00;97965.30;1727349;81;28109;-84
2022/05/23 03:58:41;;;;;;;4.15;2.85;;;;;;;11.28;100.00;97968.98;1723178;82;28090;-84
2022/05/23 04:01:11;;;;;;;5.67;3.30;;;;;;;11.35;100.00;97971.12;1721386;82;28129;-83
2022/05/23 04:03:38;;;;;;;5.90;3.20;;;;;;;11.42;100.00;97972.27;1725688;82;27976;-85
2022/05/23 04:06:04;;;;;;;6.90;4.00;;;;;;;11.45;100.00;97968.94;1729454;82;28054;-84
2022/05/23 04:08:32;;;;;;;5.92;2.83;;;;;;;11.64;100.00;97961.70;1725889;81;28084;-84
2022/05/23 04:10:58;;;;;;;7.65;4.30;;;;;;;11.87;100.00;97963.79;1716063;82;28025;-84
2022/05/23 04:13:26;;;;;;;5.92;3.17;;;;;;;12.05;100.00;97966.21;1658094;85;28097;-88
2022/05/23 04:15:53;;;;;;;7.47;2.90;;;;;;;12.24;100.00;97957.62;1664032;84;28153;-83
2022/05/23 04:18:20;;;;;;;8.00;3.55;;;;;;;12.33;100.00;97963.42;1682810;83;28169;-83
2022/05/23 04:21:05;;;;;;;8.38;3.22;;;;;;;12.21;100.00;97957.89;1735426;82;28027;-84
2022/05/23 04:23:38;;;;;;;7.00;3.42;;;;;;;12.07;100.00;97958.55;1713782;81;28085;-87
2022/05/23 04:26:07;;;;;;;5.50;2.90;;;;;;;11.95;100.00;97960.04;1730509;81;27997;-84
2022/05/23 04:28:35;;;;;;;6.58;2.90;;;;;;;11.85;99.89;97959.14;1734533;80;28103;-83
2022/05/23 04:31:04;;;;;;;4.65;2.58;;;;;;;11.89;99.91;97966.63;1727152;81;28078;-82
2022/05/23 04:36:15;;;;;;;4.58;2.95;;;;;;;12.26;100.00;97963.58;1728754;81;28068;-83
2022/05/23 04:38:41;;;;;;;6.37;3.10;;;;;;;12.35;100.00;97962.31;1735961;81;28054;-82
2022/05/23 04:41:07;;;;;;;4.78;2.95;;;;;;;12.44;100.00;97963.31;1700392;83;28660;-82
2022/05/23 04:43:34;;;;;;;6.45;3.10;;;;;;;12.54;100.00;97955.88;1731321;81;28058;-84
2022/05/23 04:46:00;;;;;;;4.78;2.45;;;;;;;12.70;100.00;97959.80;1727081;80;28175;-82
2022/05/23 04:51:12;;;;;;;8.13;3.20;;;;;;;12.82;100.00;97954.81;1728359;81;28196;-82
2022/05/23 04:53:38;;;;;;;6.40;3.20;;;;;;;12.84;100.00;97959.43;1730031;81;28073;-84
2022/05/23 04:56:06;;;;;;;4.15;2.60;;;;;;;12.71;99.78;97955.70;1732838;81;27990;-83
2022/05/23 04:58:32;;;;;;;8.38;3.37;;;;;;;12.65;99.69;97958.89;1732940;81;28140;-83
2022/05/23 05:01:01;;;;;;;5.92;3.72;;;;;;;12.82;100.00;97966.63;1725877;81;28092;-83
2022/05/23 05:03:27;;;;;;;8.60;3.50;;;;;;;12.93;100.00;97970.44;1729225;81;28205;-84
2022/05/23 05:05:53;;;;;;;7.25;3.90;;;;;;;13.03;100.00;97963.93;1727153;81;28047;-84
2022/05/23 05:08:20;;;;;;;7.67;3.70;;;;;;;12.93;99.98;97974.38;1729335;81;28129;-83
2022/05/23 05:10:47;;;;;;;9.88;5.53;;;;;;;12.82;99.68;97977.13;1731011;81;28105;-85
2022/05/23 05:13:13;;;;;;;6.87;3.65;;;;;;;12.93;99.89;97973.91;1736555;80;28079;-84
2022/05/23 05:15:42;;;;;;;6.97;3.65;;;;;;;12.94;99.75;97970.31;1728714;80;28170;-84
2022/05/23 05:18:20;;;;;;;5.55;3.65;;;;;;;12.90;99.58;97974.66;1730719;81;28082;-84
2022/05/23 05:21:14;;;;;;;7.10;3.85;;;;;;;12.96;99.74;97973.66;1732087;81;28071;-84
2022/05/23 05:23:44;;;;;;;5.78;3.67;;;;;;;13.03;99.85;97978.38;1698052;81;28068;-83
2022/05/23 05:26:14;;;;;;;6.87;3.90;;;;;;;13.08;99.95;97991.47;1732628;81;28142;-82
2022/05/23 05:28:40;;;;;;;6.12;3.50;;;;;;;13.08;99.99;97994.56;1738913;81;28115;-84
2022/05/23 05:31:19;;;;;;;9.25;4.67;;;;;;;13.19;100.00;97993.19;1732512;81;28062;-84
2022/05/23 05:33:49;;;;;;;6.03;3.45;;;;;;;13.34;100.00;97991.83;1735697;80;28106;-84
2022/05/23 05:36:19;;;;;;;7.45;4.50;;;;;;;13.30;100.00;97986.50;1731826;81;28214;-85
2022/05/23 05:38:49;;;;;;;7.67;4.87;;;;;;;13.26;100.00;97982.46;1732294;81;28046;-87
2022/05/23 05:41:26;;;;;;;12.20;4.65;;;;;;;13.24;100.00;97981.78;1730638;81;28243;-85
2022/05/23 05:43:59;;;;;;;7.80;4.45;;;;;;;13.20;100.00;97986.45;1729153;81;28086;-83
2022/05/23 05:46:31;;;;;;;6.22;4.22;;;;;;;13.06;100.00;97992.06;1733843;80;28092;-85
2022/05/23 05:49:01;;;;;;;7.60;4.15;;;;;;;12.97;100.00;97988.45;1735191;81;28015;-84
2022/05/23 05:51:28;;;;;;;8.60;4.65;;;;;;;12.95;100.00;97986.44;1739667;81;28062;-88
2022/05/23 05:53:55;;;;;;;7.15;4.50;;;;;;;12.84;100.00;97989.15;1734844;81;28028;-88
2022/05/23 05:56:27;;;;;;;6.95;4.10;;;;;;;12.87;100.00;97991.50;1729934;81;28106;-83
2022/05/23 05:59:00;;;;;;;7.60;4.83;;;;;;;13.06;100.00;97997.32;1734820;81;28061;-83
2022/05/23 06:01:26;;;;;;;8.58;4.25;;;;;;;13.16;100.00;97994.27;1733655;81;28099;-88
2022/05/23 06:03:53;;;;;;;5.58;3.42;;;;;;;13.23;100.00;97990.63;1733653;81;28043;-84
2022/05/23 06:11:55;;;;;;;5.33;3.70;;;;;;;13.02;100.00;97997.25;1731764;81;28025;-84
2022/05/23 06:14:21;;;;;;;7.25;4.20;;;;;;;13.01;100.00;97990.33;1727687;81;28060;-84
2022/05/23 06:16:47;;;;;;;9.63;5.47;;;;;;;12.97;100.00;97989.77;1703521;83;28069;-83
2022/05/23 06:19:21;;;;;;;7.47;4.15;;;;;;;12.97;100.00;97988.45;1703374;83;28099;-83
2022/05/23 06:21:47;;;;;;;6.67;3.95;;;;;;;12.96;100.00;97993.83;1735914;81;28001;-87
2022/05/23 06:24:14;;;;;;;7.30;3.62;;;;;;;12.96;100.00;97994.66;1715594;81;28068;-84
2022/05/23 06:26:48;;;;;;;6.65;4.58;;;;;;;13.05;100.00;97993.50;1696629;83;28111;-83
2022/05/23 06:29:14;;;;;;;7.62;4.40;;;;;;;13.04;100.00;97987.41;1693746;83;28055;-83
2022/05/23 06:31:41;;;;;;;8.15;4.03;;;;;;;13.11;100.00;97992.98;1716786;82;28057;-83
2022/05/23 06:34:08;;;;;;;7.65;3.72;;;;;;;13.19;100.00;97984.82;1711551;82;28086;-85
2022/05/23 06:36:36;;;;;;;7.10;4.42;;;;;;;13.28;100.00;97990.58;1717391;82;28031;-85
2022/05/23 06:39:03;;;;;;;6.30;3.90;;;;;;;13.34;100.00;97987.89;1643880;83;28180;-83
2022/05/23 06:41:32;;;;;;;5.40;4.05;;;;;;;13.51;100.00;97983.77;1654103;84;28074;-84
2022/05/23 06:44:03;;;;;;;8.25;4.40;;;;;;;13.51;100.00;97982.45;1644759;83;28079;-83
2022/05/23 06:46:33;;;;;;;5.25;3.90;;;;;;;13.56;100.00;97981.08;1713635;81;27999;-83
2022/05/23 06:48:59;;;;;;;7.17;4.28;;;;;;;13.60;100.00;97973.26;1711694;81;28180;-83
2022/05/23 06:51:25;;;;;;;7.08;4.40;;;;;;;13.55;100.00;97974.16;1715063;82;28083;-83
2022/05/23 06:53:56;;;;;;;8.00;4.12;;;;;;;13.59;100.00;97966.81;1713685;81;28123;-88
2022/05/23 06:56:22;;;;;;;6.25;4.10;;;;;;;13.59;100.00;97968.96;1712135;82;28156;-88
2022/05/23 06:58:49;;;;;;;7.35;4.20;;;;;;;13.61;100.00;97969.67;1710640;81;28075;-84
2022/05/23 07:01:16;;;;;;;7.60;4.97;;;;;;;13.66;100.00;97967.94;1713693;82;28094;-88
2022/05/23 07:03:44;;;;;;;5.53;3.33;;;;;;;13.71;100.00;97966.55;1714594;82;28123;-88
2022/05/23 07:14:27;;;;;;;8.78;4.25;;;;;;;13.97;100.00;97956.30;1713664;81;28077;-83
2022/05/23 07:16:54;;;;;;;7.75;4.40;;;;;;;14.04;100.00;97957.88;1720695;82;28099;-83
2022/05/23 07:19:21;;;;;;;6.08;3.45;;;;;;;14.08;100.00;97952.20;1718545;81;28122;-83
2022/05/23 07:21:48;;;;;;;6.20;3.33;;;;;;;14.13;100.00;97943.39;1714560;82;28159;-83
2022/05/23 07:24:14;;;;;;;3.83;2.83;;;;;;;14.17;100.00;97947.42;1711867;81;28179;-83
2022/05/23 07:26:41;;;;;;;7.92;4.15;;;;;;;14.24;100.00;97941.09;1727009;82;28108;-83
2022/05/23 07:29:08;;;;;;;6.33;3.72;;;;;;;14.27;100.00;97940.81;1730810;81;28303;-83
2022/05/23 07:31:34;;;;;;;3.35;2.50;;;;;;;14.32;100.00;97945.17;1726255;81;28161;-83
2022/05/23 07:34:01;;;;;;;7.25;3.55;;;;;;;14.37;100.00;97944.28;1732168;82;28086;-83
2022/05/23 07:36:28;;;;;;;4.85;3.42;;;;;;;14.41;100.00;97943.02;1729715;82;28031;-83
2022/05/23 07:38:55;;;;;;;4.65;3.02;;;;;;;14.56;100.00;97942.09;1728423;82;28117;-83
2022/05/23 07:41:24;;;;;;;4.53;2.40;;;;;;;14.81;100.00;97937.96;1734955;81;28163;-85
2022/05/23 07:43:50;;;;;;;4.40;2.75;;;;;;;14.93;100.00;97944.70;1724493;82;28162;-88
2022/05/23 07:46:16;;;;;;;3.85;2.47;;;;;;;15.06;100.00;97943.86;1724472;82;28016;-88
2022/05/23 07:48:48;;;;;;;2.62;1.65;;;;;;;15.08;100.00;97940.11;1725416;82;28102;-88
2022/05/23 07:51:20;;;;;;;1.62;1.02;;;;;;;15.11;100.00;97936.85;1730490;82;28028;-84
2022/05/23 08:02:10;;;;;;;3.10;2.02;;;;;;;15.60;96.20;97927.67;1722518;82;27997;-83
2022/05/23 08:04:36;;;;;;;3.37;1.90;;;;;;;15.64;95.26;97924.58;1724040;82;28122;-88
2022/05/23 08:07:03;;;;;;;2.35;1.35;;;;;;;15.75;94.78;97920.87;1722930;82;28155;-87
2022/05/23 08:09:30;;;;;;;3.17;1.80;;;;;;;15.83;94.40;97921.76;1727893;82;28133;-86
2022/05/23 08:11:57;;;;;;;3.15;1.60;;;;;;;16.01;94.21;97911.67;1725362;82;28154;-84
2022/05/23 08:14:24;;;;;;;2.80;1.45;;;;;;;16.19;94.08;97907.19;1723290;82;28134;-84
2022/05/23 08:16:51;;;;;;;2.08;1.70;;;;;;;16.26;93.04;97906.88;1726518;82;28117;-83
2022/05/23 08:19:18;;;;;;;1.57;1.25;;;;;;;16.30;91.67;97910.89;1727060;82;28143;-84
2022/05/23 08:21:54;;;;;;;1.57;1.47;;;;;;;16.31;90.08;97911.20;1726117;82;28064;-83
2022/05/23 08:24:22;;;;;;;1.42;1.10;;;;;;;16.35;89.15;97902.50;1724875;82;28149;-84
2022/05/23 08:26:49;;;;;;;1.52;1.30;;;;;;;16.45;88.54;97905.86;1730326;81;27993;-84
2022/05/23 08:29:16;;;;;;;2.30;1.70;;;;;;;16.39;86.84;97910.44;1725290;81;28176;-84
2022/05/23 08:31:46;;;;;;;4.12;1.47;;;;;;;16.40;85.71;97910.78;1725291;81;28219;-88
2022/05/23 08:34:16;;;;;;;1.77;1.40;;;;;;;16.42;85.00;97912.78;1735412;81;28116;-83
2022/05/23 08:36:42;;;;;;;3.15;1.60;;;;;;;16.36;84.18;97906.80;1734147;81;28072;-86
2022/05/23 08:39:08;;;;;;;1.70;1.20;;;;;;;16.41;83.77;97905.35;1721047;82;28109;-86
2022/05/23 08:41:38;;;;;;;5.37;1.42;;;;;;;16.46;83.08;97901.74;1733507;81;28017;-86
2022/05/23 08:44:36;;;;;;;4.75;1.65;;;;;;;16.49;82.32;97896.13;1730304;81;28115;-86
2022/05/23 08:47:15;;;;;;;2.17;1.22;;;;;;;16.69;82.27;97893.61;1661169;83;28086;-84
2022/05/23 08:49:47;;;;;;;1.22;1.12;;;;;;;16.87;82.21;97886.09;1680050;82;28080;-85
2022/05/23 08:52:39;;;;;;;3.00;0.90;;;;;;;16.80;80.99;97883.77;1727569;81;28091;-86
2022/05/23 08:55:25;;;;;;;1.75;0.90;;;;;;;16.75;79.06;97882.10;1739246;81;28071;-86
2022/05/23 08:58:01;;;;;;;1.02;0.75;;;;;;;16.75;77.96;97884.22;1726658;81;28080;-86
2022/05/23 09:00:38;;;;;;;1.98;1.12;;;;;;;16.83;77.16;97886.08;1722156;81;28074;-86
2022/05/23 09:03:10;;;;;;;1.10;0.70;;;;;;;16.86;76.25;97885.26;1726388;81;28078;-88
2022/05/23 09:05:43;;;;;;;1.27;0.85;;;;;;;16.93;75.54;97882.81;1720004;82;28096;-84
2022/05/23 09:08:13;;;;;;;1.20;1.10;;;;;;;16.89;74.58;97881.48;1723073;82;28087;-83
2022/05/23 09:10:53;;;;;;;2.87;1.20;;;;;;;16.83;72.98;97882.95;1722369;81;28137;-88
2022/05/23 09:13:18;;;;;;;1.92;1.07;;;;;;;16.83;71.67;97875.52;1724327;81;28007;-89
2022/05/23 09:15:47;;;;;;;2.02;1.27;;;;;;;16.88;70.98;97881.14;1720497;82;28081;-89
2022/05/23 09:18:18;;;;;;;2.87;1.45;;;;;;;17.02;71.00;97876.06;1731345;81;28058;-88
2022/05/23 09:20:47;;;;;;;1.47;1.35;;;;;;;17.20;71.16;97873.30;1722547;81;28167;-88
2022/05/23 09:23:20;;;;;;;1.90;1.27;;;;;;;17.40;71.10;97869.88;1728245;81;28084;-84
2022/05/23 09:25:50;;;;;;;1.42;1.00;;;;;;;17.47;70.66;97874.83;1731257;81;28155;-84
2022/05/23 09:28:30;;;;;;;1.72;1.32;;;;;;;17.56;70.50;97865.92;1718834;82;28074;-84
2022/05/23 09:31:12;;;;;;;3.42;1.35;;;;;;;17.74;70.35;97855.19;1723366;80;28053;-84
2022/05/23 09:33:45;;;;;;;1.67;1.40;;;;;;;17.95;70.38;97862.94;1718620;82;28204;-86
2022/05/23 09:36:22;;;;;;;1.32;1.12;;;;;;;17.94;69.28;97859.16;1724012;82;28066;-86
2022/05/23 09:39:01;;;;;;;2.35;1.22;;;;;;;17.85;68.13;97858.33;1720109;82;28051;-85
2022/05/23 09:50:09;;;;;;;2.17;1.72;;;;;;;17.87;65.10;97847.08;1722255;81;28083;-83
2022/05/23 09:52:42;;;;;;;1.60;1.30;;;;;;;17.92;64.58;97852.70;1724993;82;28006;-88
2022/05/23 09:55:14;;;;;;;4.75;2.20;;;;;;;17.88;63.71;97846.09;1721583;81;28153;-89
2022/05/23 09:57:45;;;;;;;1.77;1.12;;;;;;;17.75;62.64;97847.09;1724458;82;28009;-83
2022/05/23 10:00:26;;;;;;;6.12;1.65;;;;;;;17.77;62.33;97849.58;1723906;82;28047;-83
2022/05/23 10:03:08;;;;;;;2.15;1.50;;;;;;;17.79;61.97;97845.75;1724035;81;28130;-83
2022/05/23 10:05:38;;;;;;;1.95;1.30;;;;;;;18.05;62.30;97842.92;1716826;81;28136;-83
2022/05/23 10:08:15;;;;;;;1.80;1.50;;;;;;;18.15;61.96;97844.06;1716836;82;28137;-83
2022/05/23 10:11:02;;;;;;;3.52;1.45;;;;;;;18.21;61.64;97832.30;1655314;84;28085;-86
2022/05/23 10:13:32;;;;;;;4.22;1.20;;;;;;;18.26;61.09;97829.13;1716025;82;28017;-86
2022/05/23 10:16:01;;;;;;;1.00;0.88;;;;;;;18.26;60.37;97830.45;1719920;82;28120;-86
2022/05/23 10:18:34;;;;;;;1.87;1.12;;;;;;;18.22;59.80;97831.80;1716268;81;28100;-83
2022/05/23 10:21:02;;;;;;;1.62;1.32;;;;;;;18.22;59.36;97821.20;1724256;82;28104;-83
2022/05/23 10:23:33;;;;;;;2.42;1.30;;;;;;;18.34;59.37;97818.00;1722095;82;28033;-83
2022/05/23 10:26:10;;;;;;;2.15;1.25;;;;;;;18.42;58.86;97821.63;1700389;81;28106;-83
2022/05/23 10:28:44;;;;;;;1.35;1.10;;;;;;;18.33;58.14;97824.78;1724080;82;28147;-83
2022/05/23 10:31:23;;;;;;;1.75;1.30;;;;;;;18.39;57.99;97821.45;1721023;82;28125;-83
2022/05/23 10:33:54;;;;;;;2.75;1.15;;;;;;;18.43;57.80;97819.31;1736675;81;27991;-83
2022/05/23 10:36:24;;;;;;;3.60;1.45;;;;;;;18.55;57.78;97818.77;1732742;81;28139;-88
2022/05/23 10:42:12;;;;;;;1.77;1.40;;;;;;;18.86;57.58;97817.98;1721694;82;28044;-85
2022/05/23 10:44:49;;;;;;;2.80;1.52;;;;;;;18.76;56.92;97811.05;1726700;82;28061;-84
2022/05/23 10:47:36;;;;;;;3.50;1.35;;;;;;;18.54;56.00;97812.31;1721690;82;28093;-84
2022/05/23 10:50:22;;;;;;;1.50;1.10;;;;;;;18.45;55.54;97802.23;1734384;81;28104;-83
2022/05/23 10:53:04;;;;;;;1.65;1.30;;;;;;;18.52;55.53;97799.72;1718294;82;27995;-83
2022/05/23 10:55:49;;;;;;;2.22;1.30;;;;;;;18.74;55.75;97795.84;1694499;83;28139;-85
2022/05/23 10:58:25;;;;;;;1.82;0.93;;;;;;;18.88;55.77;97791.61;1726377;82;28035;-86
2022/05/23 11:01:10;;;;;;;1.10;1.00;;;;;;;18.98;55.59;97788.25;1728240;81;28101;-86
2022/05/23 11:03:46;;;;;;;1.42;1.00;;;;;;;19.06;55.24;97778.90;1730452;81;28086;-85
2022/05/23 11:06:18;;;;;;;1.72;1.17;;;;;;;19.21;55.01;97779.78;1695916;83;28114;-84
2022/05/23 11:08:59;;;;;;;1.35;1.10;;;;;;;19.04;53.90;97784.88;1728180;82;28047;-84
2022/05/23 11:11:44;;;;;;;1.00;1.00;;;;;;;18.93;53.30;97781.30;1731661;82;28062;-89
2022/05/23 11:14:32;;;;;;;1.42;1.00;;;;;;;18.86;52.74;97778.21;1728179;82;28106;-89
2022/05/23 11:17:20;;;;;;;1.98;1.27;;;;;;;18.76;52.23;97777.91;1732120;81;28443;-86
2022/05/23 11:19:52;;;;;;;1.10;0.95;;;;;;;18.68;51.64;97779.80;1728059;81;28009;-84
2022/05/23 11:22:22;;;;;;;1.05;0.95;;;;;;;18.63;51.25;97777.67;1725879;81;28032;-88
2022/05/23 11:25:09;;;;;;;1.17;1.00;;;;;;;18.68;51.23;97772.67;1725290;81;28137;-89
2022/05/23 11:36:09;;;;;;;2.17;1.25;;;;;;;19.19;51.36;97753.13;1727198;82;24820;-83
2022/05/23 11:38:47;;;;;;;1.70;1.20;;;;;;;19.35;51.42;97752.98;1734245;81;28015;-85
2022/05/23 11:41:34;;;;;;;1.22;1.02;;;;;;;19.34;50.97;97746.03;1739070;81;28176;-82
2022/05/23 11:44:04;;;;;;;1.90;0.82;;;;;;;19.38;50.93;97744.66;1730798;81;28143;-82
2022/05/23 11:47:04;;;;;;;1.05;0.80;;;;;;;19.46;50.69;97752.59;1739594;80;28528;-83
2022/05/23 11:49:49;;;;;;;1.40;0.78;;;;;;;19.46;50.24;97749.94;1729078;81;28132;-83
2022/05/23 11:52:25;;;;;;;2.35;1.07;;;;;;;19.48;49.88;97751.89;1736057;81;28101;-88
2022/05/23 11:54:52;;;;;;;2.02;1.10;;;;;;;19.54;49.69;97745.87;1730757;81;28054;-88
2022/05/23 11:57:39;;;;;;;1.05;1.00;;;;;;;19.69;49.60;97737.95;1739934;81;28102;-88
2022/05/23 12:00:09;;;;;;;1.35;0.80;;;;;;;19.81;49.52;97731.16;1737048;81;28152;-88
2022/05/23 12:02:43;;;;;;;1.85;0.82;;;;;;;19.95;49.31;97730.86;1728786;81;28222;-88
2022/05/23 12:05:16;;;;;;;2.90;0.90;;;;;;;19.83;48.56;97717.70;1723282;81;28148;-83
2022/05/23 12:07:46;;;;;;;0.82;0.80;;;;;;;19.73;47.98;97722.47;1732599;81;28119;-85
2022/05/23 12:10:28;;;;;;;1.47;0.90;;;;;;;19.72;47.65;97714.17;1734481;81;28068;-86
2022/05/23 12:13:03;;;;;;;3.25;1.22;;;;;;;19.78;47.56;97711.62;1731028;81;28045;-89
2022/05/23 12:15:47;;;;;;;2.35;0.80;;;;;;;19.80;47.20;97713.57;1730468;81;28201;-84
2022/05/23 12:18:26;;;;;;;2.30;0.88;;;;;;;19.73;46.70;97714.00;1698366;81;28072;-84
2022/05/23 12:20:58;;;;;;;1.60;0.70;;;;;;;19.68;46.43;97710.25;1734354;81;28454;-83
2022/05/23 12:23:36;;;;;;;3.70;0.90;;;;;;;19.66;46.21;97706.94;1731905;81;28062;-89
2022/05/23 12:26:15;;;;;;;0.82;0.82;;;;;;;19.58;45.87;97708.66;1728546;81;28077;-89
2022/05/23 12:28:44;;;;;;;1.42;0.90;;;;;;;19.61;45.85;97699.52;1724769;82;28074;-84
2022/05/23 12:31:14;;;;;;;1.05;0.90;;;;;;;19.85;46.06;97698.45;1724311;82;28127;-84
2022/05/23 12:33:48;;;;;;;0.70;0.70;;;;;;;20.12;46.30;97697.79;1725164;81;28084;-88
2022/05/23 12:36:24;;;;;;;1.60;0.80;;;;;;;20.38;46.52;97695.48;1725860;82;28095;-89
2022/05/23 12:39:03;;;;;;;1.55;0.82;;;;;;;20.30;46.00;97691.55;1722154;82;28120;-89
2022/05/23 12:41:51;;;;;;;0.78;0.70;;;;;;;20.15;45.68;97689.94;1724063;82;28088;-84
2022/05/23 12:44:33;;;;;;;1.15;0.80;;;;;;;20.02;45.25;97690.08;1725153;82;28011;-84
2022/05/23 12:47:24;;;;;;;1.47;0.82;;;;;;;19.87;44.79;97687.12;1728475;82;28082;-85
2022/05/23 12:50:00;;;;;;;1.27;0.80;;;;;;;19.84;44.69;97673.72;1699214;82;28113;-89
2022/05/23 12:52:37;;;;;;;1.02;0.82;;;;;;;19.93;44.64;97674.44;1719231;82;28159;-89
2022/05/23 12:55:18;;;;;;;1.87;0.85;;;;;;;20.03;44.73;97668.33;1716117;82;28080;-88
2022/05/23 12:58:13;;;;;;;1.30;0.70;;;;;;;20.15;44.77;97662.87;1725113;82;28065;-83
2022/05/23 13:00:56;;;;;;;0.62;0.62;;;;;;;20.17;44.62;97648.91;1726215;82;28082;-83